sensor_id;sensor_type;location;lat;lon;timestamp;pressure;altitude;pressure_sealevel;temperature;humidity
26823;BME280;14852;51.910;8.878;2024-01-15T00:02:07;98090.91;;;3.89;68.87
26823;BME280;14852;51.910;8.878;2024-01-15T00:04:40;98098.53;;;3.90;68.99
26823;BME280;14852;51.910;8.878;2024-01-15T00:07:07;98095.97;;;3.90;68.86
26823;BME280;14852;51.910;8.878;2024-01-15T00:09:33;98093.22;;;3.93;69.09
26823;BME280;14852;51.910;8.878;2024-01-15T00:12:00;98089.66;;;3.96;68.91
26823;BME280;14852;51.910;8.878;2024-01-15T00:14:26;98082.09;;;3.93;68.84
26823;BME280;14852;51.910;8.878;2024-01-15T00:16:52;98087.16;;;3.94;68.93
26823;BME280;14852;51.910;8.878;2024-01-15T00:19:24;98074.16;;;3.97;68.89
26823;BME280;14852;51.910;8.878;2024-01-15T00:21:50;98073.34;;;3.97;68.98
26823;BME280;14852;51.910;8.878;2024-01-15T00:24:16;98072.28;;;4.01;68.89
26823;BME280;14852;51.910;8.878;2024-01-15T00:26:42;98074.75;;;4.03;68.87
26823;BME280;14852;51.910;8.878;2024-01-15T00:29:08;98076.50;;;4.02;68.95
26823;BME280;14852;51.910;8.878;2024-01-15T00:31:35;98057.34;;;4.08;68.88
26823;BME280;14852;51.910;8.878;2024-01-15T00:34:01;98066.72;;;4.09;68.80
26823;BME280;14852;51.910;8.878;2024-01-15T00:36:27;98056.44;;;4.09;68.75
26823;BME280;14852;51.910;8.878;2024-01-15T00:38:53;98057.34;;;4.08;68.84
26823;BME280;14852;51.910;8.878;2024-01-15T00:41:19;98048.72;;;4.09;68.80
26823;BME280;14852;51.910;8.878;2024-01-15T00:43:45;98055.69;;;4.07;68.68
26823;BME280;14852;51.910;8.878;2024-01-15T00:46:11;98058.25;;;4.07;68.58
26823;BME280;14852;51.910;8.878;2024-01-15T00:48:37;98064.22;;;4.07;68.95
26823;BME280;14852;51.910;8.878;2024-01-15T00:51:04;98080.41;;;4.09;68.91
26823;BME280;14852;51.910;8.878;2024-01-15T00:53:30;98072.63;;;4.11;68.77
26823;BME280;14852;51.910;8.878;2024-01-15T00:55:57;98067.63;;;4.08;68.81
26823;BME280;14852;51.910;8.878;2024-01-15T00:58:22;98073.53;;;4.10;69.01
26823;BME280;14852;51.910;8.878;2024-01-15T01:00:48;98068.31;;;4.11;68.87
26823;BME280;14852;51.910;8.878;2024-01-15T01:03:14;98068.97;;;4.15;68.82
26823;BME280;14852;51.910;8.878;2024-01-15T01:05:40;98068.03;;;4.16;68.90
26823;BME280;14852;51.910;8.878;2024-01-15T01:08:05;98067.13;;;4.17;68.73
26823;BME280;14852;51.910;8.878;2024-01-15T01:10:31;98071.28;;;4.19;68.79
26823;BME280;14852;51.910;8.878;2024-01-15T01:12:57;98071.22;;;4.21;68.65
26823;BME280;14852;51.910;8.878;2024-01-15T01:15:23;98083.16;;;4.22;68.39
26823;BME280;14852;51.910;8.878;2024-01-15T01:17:50;98080.59;;;4.22;68.61
26823;BME280;14852;51.910;8.878;2024-01-15T01:20:15;98071.22;;;4.21;68.51
26823;BME280;14852;51.910;8.878;2024-01-15T01:22:41;98066.06;;;4.21;68.33
26823;BME280;14852;51.910;8.878;2024-01-15T01:25:07;98066.16;;;4.19;68.53
26823;BME280;14852;51.910;8.878;2024-01-15T01:27:34;98061.91;;;4.18;68.63
26823;BME280;14852;51.910;8.878;2024-01-15T01:30:00;98074.84;;;4.17;68.46
26823;BME280;14852;51.910;8.878;2024-01-15T01:32:26;98075.66;;;4.17;68.44
26823;BME280;14852;51.910;8.878;2024-01-15T01:34:51;98076.69;;;4.15;68.46
26823;BME280;14852;51.910;8.878;2024-01-15T01:37:18;98071.69;;;4.12;68.67
26823;BME280;14852;51.910;8.878;2024-01-15T01:39:44;98057.28;;;4.09;68.64
26823;BME280;14852;51.910;8.878;2024-01-15T01:42:10;98058.25;;;4.07;68.56
26823;BME280;14852;51.910;8.878;2024-01-15T01:44:37;98060.75;;;4.08;68.22
26823;BME280;14852;51.910;8.878;2024-01-15T01:47:04;98061.44;;;4.12;68.50
26823;BME280;14852;51.910;8.878;2024-01-15T01:49:30;98055.44;;;4.11;68.33
26823;BME280;14852;51.910;8.878;2024-01-15T01:51:58;98056.13;;;4.15;68.49
26823;BME280;14852;51.910;8.878;2024-01-15T01:54:28;98053.56;;;4.15;68.48
26823;BME280;14852;51.910;8.878;2024-01-15T01:56:55;98050.16;;;4.14;68.32
26823;BME280;14852;51.910;8.878;2024-01-15T01:59:21;98045.91;;;4.13;68.54
26823;BME280;14852;51.910;8.878;2024-01-15T02:01:49;98051.91;;;4.14;68.31
26823;BME280;14852;51.910;8.878;2024-01-15T02:04:16;98039.75;;;4.16;68.29
26823;BME280;14852;51.910;8.878;2024-01-15T02:06:41;98047.47;;;4.16;68.40
26823;BME280;14852;51.910;8.878;2024-01-15T02:09:08;98041.63;;;4.14;68.07
26823;BME280;14852;51.910;8.878;2024-01-15T02:11:36;98035.72;;;4.12;68.40
26823;BME280;14852;51.910;8.878;2024-01-15T02:14:02;98041.94;;;4.08;68.33
26823;BME280;14852;51.910;8.878;2024-01-15T02:16:28;98039.34;;;4.08;68.37
26823;BME280;14852;51.910;8.878;2024-01-15T02:18:54;98050.53;;;4.07;68.02
26823;BME280;14852;51.910;8.878;2024-01-15T02:21:20;98038.53;;;4.07;68.22
26823;BME280;14852;51.910;8.878;2024-01-15T02:23:45;98045.31;;;4.08;68.17
26823;BME280;14852;51.910;8.878;2024-01-15T02:26:12;98035.88;;;4.09;68.07
26823;BME280;14852;51.910;8.878;2024-01-15T02:28:38;98044.50;;;4.08;68.04
26823;BME280;14852;51.910;8.878;2024-01-15T02:31:04;98042.69;;;4.10;68.14
26823;BME280;14852;51.910;8.878;2024-01-15T02:33:29;98034.22;;;4.08;68.15
26823;BME280;14852;51.910;8.878;2024-01-15T02:35:55;98031.91;;;4.03;68.13
26823;BME280;14852;51.910;8.878;2024-01-15T02:38:21;98039.78;;;4.00;67.96
26823;BME280;14852;51.910;8.878;2024-01-15T02:40:47;98044.00;;;4.01;68.22
26823;BME280;14852;51.910;8.878;2024-01-15T02:43:12;98042.19;;;4.03;68.29
26823;BME280;14852;51.910;8.878;2024-01-15T02:45:39;98038.88;;;4.01;68.27
26823;BME280;14852;51.910;8.878;2024-01-15T02:48:05;98038.88;;;4.01;68.08
26823;BME280;14852;51.910;8.878;2024-01-15T02:50:31;98049.06;;;4.03;68.25
26823;BME280;14852;51.910;8.878;2024-01-15T02:52:57;98054.28;;;4.01;67.86
26823;BME280;14852;51.910;8.878;2024-01-15T02:55:22;98049.91;;;4.03;68.04
26823;BME280;14852;51.910;8.878;2024-01-15T02:57:48;98056.59;;;4.06;68.10
26823;BME280;14852;51.910;8.878;2024-01-15T03:00:14;98060.75;;;4.08;67.87
26823;BME280;14852;51.910;8.878;2024-01-15T03:02:43;98050.47;;;4.08;67.94
26823;BME280;14852;51.910;8.878;2024-01-15T03:05:10;98056.34;;;4.10;67.93
26823;BME280;14852;51.910;8.878;2024-01-15T03:07:36;98059.00;;;4.09;67.89
26823;BME280;14852;51.910;8.878;2024-01-15T03:10:02;98047.06;;;4.08;67.85
26823;BME280;14852;51.910;8.878;2024-01-15T03:12:28;98056.34;;;4.10;68.02
26823;BME280;14852;51.910;8.878;2024-01-15T03:14:54;98059.84;;;4.09;67.85
26823;BME280;14852;51.910;8.878;2024-01-15T03:17:19;98058.09;;;4.10;67.97
26823;BME280;14852;51.910;8.878;2024-01-15T03:19:45;98053.78;;;4.10;67.76
26823;BME280;14852;51.910;8.878;2024-01-15T03:22:11;98043.50;;;4.10;67.56
26823;BME280;14852;51.910;8.878;2024-01-15T03:24:37;98038.38;;;4.10;67.64
26823;BME280;14852;51.910;8.878;2024-01-15T03:27:03;98049.56;;;4.09;67.77
26823;BME280;14852;51.910;8.878;2024-01-15T03:29:29;98039.28;;;4.09;67.70
26823;BME280;14852;51.910;8.878;2024-01-15T03:31:54;98042.69;;;4.10;67.58
26823;BME280;14852;51.910;8.878;2024-01-15T03:34:20;98045.16;;;4.11;67.92
26823;BME280;14852;51.910;8.878;2024-01-15T03:36:46;98034.88;;;4.11;67.95
26823;BME280;14852;51.910;8.878;2024-01-15T03:39:12;98033.06;;;4.13;67.49
26823;BME280;14852;51.910;8.878;2024-01-15T03:41:37;98027.75;;;4.16;67.94
26823;BME280;14852;51.910;8.878;2024-01-15T03:44:03;98034.53;;;4.17;67.37
26823;BME280;14852;51.910;8.878;2024-01-15T03:46:29;98028.41;;;4.20;67.58
26823;BME280;14852;51.910;8.878;2024-01-15T03:48:55;98026.69;;;4.20;67.66
26823;BME280;14852;51.910;8.878;2024-01-15T03:51:20;98022.28;;;4.22;67.67
26823;BME280;14852;51.910;8.878;2024-01-15T03:53:46;98010.25;;;4.23;67.44
26823;BME280;14852;51.910;8.878;2024-01-15T03:56:12;98014.56;;;4.22;67.46
26823;BME280;14852;51.910;8.878;2024-01-15T03:58:38;98009.50;;;4.21;67.58
26823;BME280;14852;51.910;8.878;2024-01-15T04:01:09;98010.44;;;4.20;67.53
26823;BME280;14852;51.910;8.878;2024-01-15T04:03:35;98014.81;;;4.18;67.44
26823;BME280;14852;51.910;8.878;2024-01-15T04:06:01;98022.59;;;4.16;67.85
26823;BME280;14852;51.910;8.878;2024-01-15T04:08:27;98015.84;;;4.15;67.47
26823;BME280;14852;51.910;8.878;2024-01-15T04:10:53;98024.44;;;4.14;67.70
26823;BME280;14852;51.910;8.878;2024-01-15T04:13:20;98030.50;;;4.13;67.48
26823;BME280;14852;51.910;8.878;2024-01-15T04:15:46;98034.81;;;4.13;67.49
26823;BME280;14852;51.910;8.878;2024-01-15T04:18:12;98031.34;;;4.14;67.82
26823;BME280;14852;51.910;8.878;2024-01-15T04:20:37;98024.34;;;4.16;67.67
26823;BME280;14852;51.910;8.878;2024-01-15T04:23:04;98023.53;;;4.15;67.84
26823;BME280;14852;51.910;8.878;2024-01-15T04:25:30;98028.69;;;4.15;67.91
26823;BME280;14852;51.910;8.878;2024-01-15T04:27:56;98018.47;;;4.14;67.77
26823;BME280;14852;51.910;8.878;2024-01-15T04:30:22;98014.06;;;4.16;67.56
26823;BME280;14852;51.910;8.878;2024-01-15T04:32:48;98015.72;;;4.17;67.82
26823;BME280;14852;51.910;8.878;2024-01-15T04:35:13;98018.41;;;4.15;67.63
26823;BME280;14852;51.910;8.878;2024-01-15T04:37:42;98009.25;;;4.10;67.64
26823;BME280;14852;51.910;8.878;2024-01-15T04:40:09;98028.16;;;4.09;67.56
26823;BME280;14852;51.910;8.878;2024-01-15T04:42:35;98012.81;;;4.07;67.82
26823;BME280;14852;51.910;8.878;2024-01-15T04:45:01;98006.84;;;4.07;68.01
26823;BME280;14852;51.910;8.878;2024-01-15T04:47:26;98010.34;;;4.06;67.88
26823;BME280;14852;51.910;8.878;2024-01-15T04:49:52;98002.47;;;4.09;67.85
26823;BME280;14852;51.910;8.878;2024-01-15T04:52:18;98008.50;;;4.08;68.04
26823;BME280;14852;51.910;8.878;2024-01-15T04:54:43;98001.72;;;4.07;68.12
26823;BME280;14852;51.910;8.878;2024-01-15T04:57:09;97995.66;;;4.08;67.92
26823;BME280;14852;51.910;8.878;2024-01-15T04:59:35;97994.91;;;4.06;67.77
26823;BME280;14852;51.910;8.878;2024-01-15T05:02:01;97985.47;;;4.06;67.86
26823;BME280;14852;51.910;8.878;2024-01-15T05:04:26;97992.25;;;4.07;68.01
26823;BME280;14852;51.910;8.878;2024-01-15T05:06:55;97987.97;;;4.08;67.90
26823;BME280;14852;51.910;8.878;2024-01-15T05:09:21;97988.72;;;4.10;67.91
26823;BME280;14852;51.910;8.878;2024-01-15T05:11:46;97981.81;;;4.10;67.72
26823;BME280;14852;51.910;8.878;2024-01-15T05:14:12;97984.47;;;4.09;67.95
26823;BME280;14852;51.910;8.878;2024-01-15T05:16:39;97982.72;;;4.09;68.13
26823;BME280;14852;51.910;8.878;2024-01-15T05:19:07;97983.56;;;4.10;67.97
26823;BME280;14852;51.910;8.878;2024-01-15T05:21:33;97985.22;;;4.11;67.82
26823;BME280;14852;51.910;8.878;2024-01-15T05:23:58;97981.06;;;4.08;67.76
26823;BME280;14852;51.910;8.878;2024-01-15T05:26:24;97985.38;;;4.08;67.94
26823;BME280;14852;51.910;8.878;2024-01-15T05:28:50;97985.31;;;4.09;67.95
26823;BME280;14852;51.910;8.878;2024-01-15T05:31:16;97982.66;;;4.11;67.86
26823;BME280;14852;51.910;8.878;2024-01-15T05:33:41;97987.88;;;4.09;67.65
26823;BME280;14852;51.910;8.878;2024-01-15T05:36:07;97983.66;;;4.08;67.86
26823;BME280;14852;51.910;8.878;2024-01-15T05:38:33;97983.56;;;4.10;67.98
26823;BME280;14852;51.910;8.878;2024-01-15T05:40:59;97976.69;;;4.10;67.88
26823;BME280;14852;51.910;8.878;2024-01-15T05:43:24;97983.56;;;4.10;67.68
26823;BME280;14852;51.910;8.878;2024-01-15T05:45:50;97969.06;;;4.09;67.64
26823;BME280;14852;51.910;8.878;2024-01-15T05:48:16;97981.22;;;4.05;67.83
26823;BME280;14852;51.910;8.878;2024-01-15T05:50:42;97977.13;;;4.03;68.03
26823;BME280;14852;51.910;8.878;2024-01-15T05:53:07;97972.88;;;4.02;68.08
26823;BME280;14852;51.910;8.878;2024-01-15T05:55:36;97976.38;;;4.00;68.14
26823;BME280;14852;51.910;8.878;2024-01-15T05:58:01;97992.53;;;4.03;67.99
26823;BME280;14852;51.910;8.878;2024-01-15T06:00:27;97991.50;;;4.05;68.00
26823;BME280;14852;51.910;8.878;2024-01-15T06:02:53;97993.84;;;4.10;68.06
26823;BME280;14852;51.910;8.878;2024-01-15T06:05:19;97988.78;;;4.08;67.71
26823;BME280;14852;51.910;8.878;2024-01-15T06:07:44;97981.00;;;4.10;67.76
26823;BME280;14852;51.910;8.878;2024-01-15T06:10:10;97996.41;;;4.10;67.83
26823;BME280;14852;51.910;8.878;2024-01-15T06:12:36;97984.47;;;4.09;68.07
26823;BME280;14852;51.910;8.878;2024-01-15T06:15:02;97986.13;;;4.10;67.67
26823;BME280;14852;51.910;8.878;2024-01-15T06:17:27;97981.75;;;4.12;67.80
26823;BME280;14852;51.910;8.878;2024-01-15T06:19:53;97975.94;;;4.08;67.78
26823;BME280;14852;51.910;8.878;2024-01-15T06:22:19;97977.59;;;4.09;67.87
26823;BME280;14852;51.910;8.878;2024-01-15T06:24:45;97985.16;;;4.12;67.98
26823;BME280;14852;51.910;8.878;2024-01-15T06:27:12;97984.16;;;4.15;68.08
26823;BME280;14852;51.910;8.878;2024-01-15T06:29:38;97980.09;;;4.11;67.90
26823;BME280;14852;51.910;8.878;2024-01-15T06:32:04;97986.06;;;4.11;67.74
26823;BME280;14852;51.910;8.878;2024-01-15T06:34:30;97981.00;;;4.10;68.23
26823;BME280;14852;51.910;8.878;2024-01-15T06:36:56;97983.56;;;4.10;67.77
26823;BME280;14852;51.910;8.878;2024-01-15T06:39:22;97976.84;;;4.07;68.02
26823;BME280;14852;51.910;8.878;2024-01-15T06:41:47;97977.59;;;4.09;68.06
26823;BME280;14852;51.910;8.878;2024-01-15T06:44:13;97983.66;;;4.08;68.00
26823;BME280;14852;51.910;8.878;2024-01-15T06:46:46;97957.88;;;4.10;68.17
26823;BME280;14852;51.910;8.878;2024-01-15T06:49:12;97982.66;;;4.11;67.95
26823;BME280;14852;51.910;8.878;2024-01-15T06:51:38;97974.19;;;4.09;67.88
26823;BME280;14852;51.910;8.878;2024-01-15T06:54:04;97981.97;;;4.07;67.73
26823;BME280;14852;51.910;8.878;2024-01-15T06:56:31;97975.84;;;4.10;67.75
26823;BME280;14852;51.910;8.878;2024-01-15T06:58:56;97981.91;;;4.09;67.96
26823;BME280;14852;51.910;8.878;2024-01-15T07:01:22;97988.72;;;4.10;68.05
26823;BME280;14852;51.910;8.878;2024-01-15T07:03:48;97992.84;;;4.12;68.14
26823;BME280;14852;51.910;8.878;2024-01-15T07:06:14;97993.59;;;4.14;67.95
26823;BME280;14852;51.910;8.878;2024-01-15T07:08:40;97985.16;;;4.12;68.04
26823;BME280;14852;51.910;8.878;2024-01-15T07:11:07;97986.97;;;4.10;67.92
26823;BME280;14852;51.910;8.878;2024-01-15T07:13:33;97980.00;;;4.12;67.81
26823;BME280;14852;51.910;8.878;2024-01-15T07:15:59;97977.44;;;4.12;68.01
26823;BME280;14852;51.910;8.878;2024-01-15T07:18:25;97986.72;;;4.15;67.69
26823;BME280;14852;51.910;8.878;2024-01-15T07:20:51;97990.94;;;4.16;67.83
26823;BME280;14852;51.910;8.878;2024-01-15T07:23:17;97987.81;;;4.11;67.98
26823;BME280;14852;51.910;8.878;2024-01-15T07:25:43;97991.34;;;4.08;68.01
26823;BME280;14852;51.910;8.878;2024-01-15T07:28:09;97982.81;;;4.08;68.15
26823;BME280;14852;51.910;8.878;2024-01-15T07:30:34;97981.00;;;4.10;67.98
26823;BME280;14852;51.910;8.878;2024-01-15T07:33:00;97989.63;;;4.09;67.77
26823;BME280;14852;51.910;8.878;2024-01-15T07:35:26;97994.69;;;4.10;68.08
26823;BME280;14852;51.910;8.878;2024-01-15T07:37:52;97988.63;;;4.11;67.97
26823;BME280;14852;51.910;8.878;2024-01-15T07:40:18;97986.97;;;4.10;68.08
26823;BME280;14852;51.910;8.878;2024-01-15T07:42:44;97983.50;;;4.11;67.76
26823;BME280;14852;51.910;8.878;2024-01-15T07:45:11;97990.28;;;4.12;68.23
26823;BME280;14852;51.910;8.878;2024-01-15T07:47:36;98001.31;;;4.14;67.89
26823;BME280;14852;51.910;8.878;2024-01-15T07:50:03;97995.34;;;4.14;67.99
26823;BME280;14852;51.910;8.878;2024-01-15T07:52:30;97991.75;;;4.16;67.68
26823;BME280;14852;51.910;8.878;2024-01-15T07:54:56;97996.91;;;4.16;67.84
26823;BME280;14852;51.910;8.878;2024-01-15T07:57:22;97996.81;;;4.18;67.86
26823;BME280;14852;51.910;8.878;2024-01-15T07:59:48;97995.16;;;4.17;67.89
26823;BME280;14852;51.910;8.878;2024-01-15T08:02:14;97998.75;;;4.14;67.86
26823;BME280;14852;51.910;8.878;2024-01-15T08:04:40;98001.22;;;4.16;67.76
26823;BME280;14852;51.910;8.878;2024-01-15T08:07:05;98009.84;;;4.15;68.11
26823;BME280;14852;51.910;8.878;2024-01-15T08:09:33;98013.16;;;4.17;67.75
26823;BME280;14852;51.910;8.878;2024-01-15T08:11:59;98013.06;;;4.18;67.75
26823;BME280;14852;51.910;8.878;2024-01-15T08:14:25;98018.06;;;4.21;67.89
26823;BME280;14852;51.910;8.878;2024-01-15T08:16:51;98010.25;;;4.23;67.94
26823;BME280;14852;51.910;8.878;2024-01-15T08:19:16;98006.59;;;4.27;67.67
26823;BME280;14852;51.910;8.878;2024-01-15T08:21:42;98005.44;;;4.32;67.74
26823;BME280;14852;51.910;8.878;2024-01-15T08:24:08;98011.19;;;4.38;67.54
26823;BME280;14852;51.910;8.878;2024-01-15T08:26:34;98016.22;;;4.39;67.75
26823;BME280;14852;51.910;8.878;2024-01-15T08:29:00;98014.22;;;4.44;67.60
26823;BME280;14852;51.910;8.878;2024-01-15T08:31:26;98010.06;;;4.42;67.33
26823;BME280;14852;51.910;8.878;2024-01-15T08:33:52;98005.69;;;4.44;67.58
26823;BME280;14852;51.910;8.878;2024-01-15T08:36:19;98015.88;;;4.45;67.51
26823;BME280;14852;51.910;8.878;2024-01-15T08:38:44;97990.09;;;4.47;67.59
26823;BME280;14852;51.910;8.878;2024-01-15T08:41:10;98009.84;;;4.46;67.53
26823;BME280;14852;51.910;8.878;2024-01-15T08:43:36;98010.00;;;4.43;67.56
26823;BME280;14852;51.910;8.878;2024-01-15T08:46:03;98001.44;;;4.43;67.63
26823;BME280;14852;51.910;8.878;2024-01-15T08:48:29;98012.56;;;4.43;67.63
26823;BME280;14852;51.910;8.878;2024-01-15T08:50:55;98004.94;;;4.42;67.33
26823;BME280;14852;51.910;8.878;2024-01-15T08:53:22;98003.19;;;4.42;67.56
26823;BME280;14852;51.910;8.878;2024-01-15T08:55:48;98006.59;;;4.43;67.52
26823;BME280;14852;51.910;8.878;2024-01-15T08:58:13;98011.81;;;4.41;67.19
26823;BME280;14852;51.910;8.878;2024-01-15T09:00:39;98016.13;;;4.41;67.74
26823;BME280;14852;51.910;8.878;2024-01-15T09:03:05;98003.63;;;4.34;67.59
26823;BME280;14852;51.910;8.878;2024-01-15T09:05:31;98015.56;;;4.35;67.75
26823;BME280;14852;51.910;8.878;2024-01-15T09:07:57;98001.59;;;4.40;67.47
26823;BME280;14852;51.910;8.878;2024-01-15T09:10:23;98017.16;;;4.38;67.36
26823;BME280;14852;51.910;8.878;2024-01-15T09:12:49;98004.19;;;4.40;67.70
26823;BME280;14852;51.910;8.878;2024-01-15T09:15:15;98010.16;;;4.40;67.53
26823;BME280;14852;51.910;8.878;2024-01-15T09:17:41;98010.91;;;4.42;67.30
26823;BME280;14852;51.910;8.878;2024-01-15T09:20:09;98008.16;;;4.45;67.58
26823;BME280;14852;51.910;8.878;2024-01-15T09:22:38;98010.38;;;4.51;67.23
26823;BME280;14852;51.910;8.878;2024-01-15T09:25:04;98005.00;;;4.56;67.22
26823;BME280;14852;51.910;8.878;2024-01-15T09:27:30;98013.53;;;4.56;67.39
26823;BME280;14852;51.910;8.878;2024-01-15T09:29:56;98017.63;;;4.60;67.16
26823;BME280;14852;51.910;8.878;2024-01-15T09:32:22;98019.28;;;4.61;67.11
26823;BME280;14852;51.910;8.878;2024-01-15T09:34:48;98017.63;;;4.60;67.23
26823;BME280;14852;51.910;8.878;2024-01-15T09:37:14;98013.38;;;4.59;67.34
26823;BME280;14852;51.910;8.878;2024-01-15T09:39:41;98009.06;;;4.60;67.25
26823;BME280;14852;51.910;8.878;2024-01-15T09:42:07;98013.38;;;4.59;67.14
26823;BME280;14852;51.910;8.878;2024-01-15T09:44:33;98013.63;;;4.55;67.25
26823;BME280;14852;51.910;8.878;2024-01-15T09:46:59;98014.38;;;4.57;67.52
26823;BME280;14852;51.910;8.878;2024-01-15T09:49:25;97999.78;;;4.57;67.40
26823;BME280;14852;51.910;8.878;2024-01-15T09:51:51;98014.63;;;4.52;67.42
26823;BME280;14852;51.910;8.878;2024-01-15T09:54:17;98008.56;;;4.53;67.38
26823;BME280;14852;51.910;8.878;2024-01-15T09:56:47;98005.66;;;4.59;67.26
26823;BME280;14852;51.910;8.878;2024-01-15T09:59:16;98014.75;;;4.65;67.20
26823;BME280;14852;51.910;8.878;2024-01-15T10:01:44;98007.13;;;4.63;67.09
26823;BME280;14852;51.910;8.878;2024-01-15T10:04:11;98017.34;;;4.65;66.97
26823;BME280;14852;51.910;8.878;2024-01-15T10:06:45;98005.47;;;4.62;67.02
26823;BME280;14852;51.910;8.878;2024-01-15T10:09:12;97997.03;;;4.60;67.12
26823;BME280;14852;51.910;8.878;2024-01-15T10:11:44;98006.06;;;4.67;67.19
26823;BME280;14852;51.910;8.878;2024-01-15T10:14:11;97996.34;;;4.72;66.81
26823;BME280;14852;51.910;8.878;2024-01-15T10:16:40;98010.69;;;4.77;66.86
26823;BME280;14852;51.910;8.878;2024-01-15T10:19:07;98013.38;;;4.89;66.81
26823;BME280;14852;51.910;8.878;2024-01-15T10:21:33;97999.78;;;4.87;66.51
26823;BME280;14852;51.910;8.878;2024-01-15T10:24:03;98001.03;;;4.80;66.42
26823;BME280;14852;51.910;8.878;2024-01-15T10:26:30;98007.56;;;4.71;66.87
26823;BME280;14852;51.910;8.878;2024-01-15T10:28:56;98004.97;;;4.71;67.03
26823;BME280;14852;51.910;8.878;2024-01-15T10:31:22;98008.25;;;4.73;66.85
26823;BME280;14852;51.910;8.878;2024-01-15T10:33:51;98002.63;;;4.83;67.01
26823;BME280;14852;51.910;8.878;2024-01-15T10:36:17;98006.84;;;4.84;66.63
26823;BME280;14852;51.910;8.878;2024-01-15T10:38:44;98006.56;;;4.88;66.67
26823;BME280;14852;51.910;8.878;2024-01-15T10:41:10;98004.00;;;4.88;66.62
26823;BME280;14852;51.910;8.878;2024-01-15T10:43:36;98002.34;;;4.87;66.65
26823;BME280;14852;51.910;8.878;2024-01-15T10:46:03;98000.59;;;4.88;66.70
26823;BME280;14852;51.910;8.878;2024-01-15T10:48:29;97998.84;;;4.88;66.83
26823;BME280;14852;51.910;8.878;2024-01-15T10:50:57;97998.59;;;4.93;66.73
26823;BME280;14852;51.910;8.878;2024-01-15T10:53:24;98000.19;;;4.95;66.42
26823;BME280;14852;51.910;8.878;2024-01-15T10:55:53;98001.25;;;4.91;66.66
26823;BME280;14852;51.910;8.878;2024-01-15T10:58:20;98001.44;;;4.88;66.65
26823;BME280;14852;51.910;8.878;2024-01-15T11:00:47;97998.47;;;4.80;66.78
26823;BME280;14852;51.910;8.878;2024-01-15T11:03:13;97991.66;;;4.79;66.99
26823;BME280;14852;51.910;8.878;2024-01-15T11:05:43;97985.78;;;4.77;66.88
26823;BME280;14852;51.910;8.878;2024-01-15T11:08:09;97994.16;;;4.81;66.88
26823;BME280;14852;51.910;8.878;2024-01-15T11:10:45;98001.03;;;4.80;66.56
26823;BME280;14852;51.910;8.878;2024-01-15T11:16:10;97997.16;;;4.73;66.88
26823;BME280;14852;51.910;8.878;2024-01-15T11:18:43;97996.91;;;4.78;66.63
26823;BME280;14852;51.910;8.878;2024-01-15T11:23:53;97991.97;;;4.89;66.27
26823;BME280;14852;51.910;8.878;2024-01-15T11:26:45;97988.13;;;4.96;66.47
26823;BME280;14852;51.910;8.878;2024-01-15T11:34:21;97986.47;;;5.09;65.92
26823;BME280;14852;51.910;8.878;2024-01-15T11:37:07;97986.47;;;5.09;65.91
26823;BME280;14852;51.910;8.878;2024-01-15T11:42:01;97975.94;;;5.14;65.92
26823;BME280;14852;51.910;8.878;2024-01-15T11:44:27;97973.19;;;5.17;65.65
26823;BME280;14852;51.910;8.878;2024-01-15T11:47:08;97990.47;;;5.15;65.92
26823;BME280;14852;51.910;8.878;2024-01-15T11:50:02;97987.88;;;5.15;65.60
26823;BME280;14852;51.910;8.878;2024-01-15T11:52:38;97990.53;;;5.13;65.69
26823;BME280;14852;51.910;8.878;2024-01-15T11:55:32;97983.00;;;5.10;66.05
26823;BME280;14852;51.910;8.878;2024-01-15T11:58:01;97976.47;;;5.04;65.69
26823;BME280;14852;51.910;8.878;2024-01-15T12:00:27;97987.78;;;5.02;66.07
26823;BME280;14852;51.910;8.878;2024-01-15T12:02:53;97984.53;;;4.98;65.96
26823;BME280;14852;51.910;8.878;2024-01-15T12:05:20;97990.50;;;4.99;65.82
26823;BME280;14852;51.910;8.878;2024-01-15T12:07:49;97981.13;;;4.98;66.11
26823;BME280;14852;51.910;8.878;2024-01-15T12:10:20;97977.38;;;5.03;66.06
26823;BME280;14852;51.910;8.878;2024-01-15T12:13:19;97975.09;;;5.13;65.97
26823;BME280;14852;51.910;8.878;2024-01-15T12:15:47;97974.19;;;5.14;65.48
26823;BME280;14852;51.910;8.878;2024-01-15T12:18:15;97976.59;;;5.17;65.43
26823;BME280;14852;51.910;8.878;2024-01-15T12:20:43;97977.41;;;5.18;65.64
26823;BME280;14852;51.910;8.878;2024-01-15T12:23:10;97983.47;;;5.17;65.44
26823;BME280;14852;51.910;8.878;2024-01-15T12:25:36;97974.34;;;5.11;65.38
26823;BME280;14852;51.910;8.878;2024-01-15T12:28:03;97968.38;;;5.10;65.43
26823;BME280;14852;51.910;8.878;2024-01-15T12:30:30;97970.88;;;5.12;65.74
26823;BME280;14852;51.910;8.878;2024-01-15T12:33:06;97970.63;;;5.17;65.78
26823;BME280;14852;51.910;8.878;2024-01-15T12:35:33;97973.28;;;5.15;65.57
26823;BME280;14852;51.910;8.878;2024-01-15T12:38:00;97969.59;;;5.05;65.40
26823;BME280;14852;51.910;8.878;2024-01-15T12:40:32;97972.88;;;4.93;65.48
26823;BME280;14852;51.910;8.878;2024-01-15T12:42:59;97982.59;;;4.88;65.91
26823;BME280;14852;51.910;8.878;2024-01-15T12:45:25;97989.47;;;4.87;65.44
26823;BME280;14852;51.910;8.878;2024-01-15T12:47:51;97982.88;;;4.83;65.37
26823;BME280;14852;51.910;8.878;2024-01-15T12:50:18;97985.31;;;4.85;65.58
26823;BME280;14852;51.910;8.878;2024-01-15T12:52:44;97975.78;;;4.87;65.74
26823;BME280;14852;51.910;8.878;2024-01-15T12:55:10;97981.84;;;4.86;65.71
26823;BME280;14852;51.910;8.878;2024-01-15T12:57:36;97976.69;;;4.86;65.70
26823;BME280;14852;51.910;8.878;2024-01-15T13:00:06;97989.84;;;4.81;65.34
26823;BME280;14852;51.910;8.878;2024-01-15T13:02:39;97990.66;;;4.82;65.59
26823;BME280;14852;51.910;8.878;2024-01-15T13:05:08;97983.78;;;4.82;65.46
26823;BME280;14852;51.910;8.878;2024-01-15T13:07:34;97985.44;;;4.83;65.48
26823;BME280;14852;51.910;8.878;2024-01-15T13:10:00;97983.50;;;4.87;65.49
26823;BME280;14852;51.910;8.878;2024-01-15T13:12:26;97984.41;;;4.86;65.38
26823;BME280;14852;51.910;8.878;2024-01-15T13:14:51;97970.00;;;4.83;65.37
26823;BME280;14852;51.910;8.878;2024-01-15T13:17:18;97978.81;;;4.79;65.32
26823;BME280;14852;51.910;8.878;2024-01-15T13:19:44;97979.13;;;4.73;65.23
26823;BME280;14852;51.910;8.878;2024-01-15T13:22:10;97975.56;;;4.76;65.53